Time;durP1;ratioP1;P1;durP2;ratioP2;P2;SDS_P1;SDS_P2;PMS_P1;PMS_P2;Temp;Humidity;BMP_temperature;BMP_pressure;BME280_temperature;BME280_humidity;BME280_pressure;Samples;Min_cycle;Max_cycle;Signal;HPM_P1;HPM_P2
2022/07/09 00:00:10;;;;;;;3.47;1.40;;;;;;;27.43;34.53;102755.88;6246840;23;20008;-44
2022/07/09 00:02:39;;;;;;;2.35;1.52;;;;;;;27.43;34.48;102755.88;6221005;23;20000;-43
2022/07/09 00:05:07;;;;;;;2.90;1.30;;;;;;;27.37;34.56;102750.47;6247029;23;20438;-49
2022/07/09 00:07:35;;;;;;;3.22;1.80;;;;;;;27.32;34.54;102744.16;6246744;23;20007;-53
2022/07/09 00:10:04;;;;;;;2.55;1.50;;;;;;;27.32;34.95;102746.81;6246880;23;20162;-47
2022/07/09 00:12:32;;;;;;;3.50;1.55;;;;;;;27.31;34.67;102745.91;6246907;23;20004;-57
2022/07/09 00:15:01;;;;;;;2.08;1.30;;;;;;;27.33;34.44;102748.59;6246970;23;20065;-43
2022/07/09 00:17:30;;;;;;;3.80;1.80;;;;;;;27.30;34.69;102739.75;6246594;23;20004;-49
2022/07/09 00:19:58;;;;;;;2.63;1.58;;;;;;;27.21;34.71;102741.25;6246453;23;20004;-43
2022/07/09 00:22:27;;;;;;;3.92;1.45;;;;;;;27.21;34.80;102731.63;6246884;23;20004;-51
2022/07/09 00:24:56;;;;;;;3.25;1.52;;;;;;;27.21;34.80;102728.97;6246562;23;20008;-43
2022/07/09 00:27:24;;;;;;;5.45;1.52;;;;;;;27.25;34.74;102736.09;6246946;23;20011;-43
2022/07/09 00:29:53;;;;;;;2.80;1.30;;;;;;;27.28;34.71;102737.94;6246661;23;20004;-47
2022/07/09 00:32:21;;;;;;;2.17;1.38;;;;;;;27.21;34.67;102728.06;6244535;23;20071;-44
2022/07/09 00:34:50;;;;;;;1.95;1.20;;;;;;;27.08;34.91;102738.28;6246342;23;20031;-43
2022/07/09 00:37:18;;;;;;;2.90;1.52;;;;;;;27.05;35.18;102726.78;6246021;23;20428;-43
2022/07/09 00:39:47;;;;;;;4.07;1.77;;;;;;;27.09;35.18;102726.88;6246421;23;20016;-43
2022/07/09 00:42:15;;;;;;;1.70;1.15;;;;;;;27.11;35.08;102727.84;6246424;23;20436;-46
2022/07/09 00:44:44;;;;;;;2.95;1.60;;;;;;;27.03;35.07;102729.34;6219196;23;20416;-52
2022/07/09 00:47:13;;;;;;;3.00;1.58;;;;;;;27.08;34.90;102719.84;6245983;23;20007;-43
2022/07/09 00:49:43;;;;;;;3.40;1.58;;;;;;;27.11;34.90;102716.38;6246153;23;20012;-42
2022/07/09 00:52:14;;;;;;;3.83;1.80;;;;;;;26.98;35.31;102721.31;6246561;23;20050;-48
2022/07/09 00:54:43;;;;;;;5.07;1.98;;;;;;;27.03;35.18;102723.19;6246619;23;20142;-43
2022/07/09 00:57:12;;;;;;;7.03;1.55;;;;;;;26.95;35.22;102720.34;6246404;23;20323;-43
2022/07/09 00:59:41;;;;;;;3.47;1.52;;;;;;;26.95;35.24;102722.97;6246412;23;20000;-42
2022/07/09 01:02:10;;;;;;;2.05;1.33;;;;;;;27.04;34.99;102715.31;6219602;23;20423;-52
2022/07/09 01:04:39;;;;;;;4.55;1.73;;;;;;;26.99;34.99;102714.28;6246452;23;20000;-48
2022/07/09 01:07:07;;;;;;;4.68;1.30;;;;;;;26.94;35.30;102715.94;6246539;23;20007;-43
2022/07/09 01:09:36;;;;;;;2.70;1.50;;;;;;;27.02;35.04;102716.16;6246117;23;20000;-43
2022/07/09 01:12:05;;;;;;;3.10;1.35;;;;;;;26.92;35.12;102697.44;6246706;23;20008;-51
2022/07/09 01:14:33;;;;;;;3.28;1.65;;;;;;;26.82;35.63;102711.22;6246140;23;20024;-43
2022/07/09 01:17:03;;;;;;;1.92;1.02;;;;;;;26.54;35.53;102670.91;6246398;23;20000;-49
2022/07/09 01:19:34;;;;;;;3.08;1.48;;;;;;;26.72;35.50;102701.22;6246936;23;20004;-43
2022/07/09 01:22:02;;;;;;;2.95;1.58;;;;;;;26.80;35.52;102695.38;6220380;23;20004;-44
2022/07/09 01:24:31;;;;;;;2.55;1.50;;;;;;;26.60;35.85;102694.75;6244910;23;20058;-42
2022/07/09 01:26:59;;;;;;;2.92;1.70;;;;;;;26.67;35.51;102690.53;6245813;23;20008;-43
2022/07/09 01:29:28;;;;;;;5.60;1.80;;;;;;;26.73;35.54;102685.47;6245062;23;20328;-44
2022/07/09 01:31:57;;;;;;;2.30;1.30;;;;;;;26.64;35.72;102665.03;6245867;23;20004;-43
2022/07/09 01:34:25;;;;;;;3.00;1.60;;;;;;;26.74;35.53;102688.97;6245870;23;20435;-42
2022/07/09 01:36:54;;;;;;;2.50;1.42;;;;;;;26.66;35.45;102681.78;6246134;23;20007;-42
2022/07/09 01:39:22;;;;;;;2.95;1.50;;;;;;;26.65;35.52;102679.06;6245892;23;20054;-55
2022/07/09 01:41:51;;;;;;;2.08;1.17;;;;;;;26.65;35.50;102676.44;6246613;23;20024;-43
2022/07/09 01:44:19;;;;;;;4.10;1.40;;;;;;;26.54;35.45;102655.09;6219334;23;20378;-43
2022/07/09 01:46:48;;;;;;;3.25;1.25;;;;;;;26.53;35.65;102656.81;6219187;23;20008;-43
2022/07/09 01:49:16;;;;;;;2.22;1.42;;;;;;;26.80;35.24;102679.56;6246396;23;20383;-44
2022/07/09 01:51:45;;;;;;;3.58;1.40;;;;;;;26.75;35.47;102667.06;6218974;23;20004;-44
2022/07/09 01:54:13;;;;;;;3.33;1.48;;;;;;;26.61;35.75;102672.84;6218994;23;20007;-44
2022/07/09 01:56:41;;;;;;;4.60;1.40;;;;;;;26.65;35.71;102680.00;6245967;23;20010;-54
2022/07/09 01:59:10;;;;;;;3.65;1.63;;;;;;;26.46;35.78;102675.94;6246082;23;20004;-42
2022/07/09 02:01:38;;;;;;;1.75;1.35;;;;;;;26.41;35.84;102667.00;6246002;23;20007;-42
2022/07/09 02:04:06;;;;;;;2.53;1.38;;;;;;;26.47;35.72;102663.66;6246101;23;20099;-42
2022/07/09 02:06:34;;;;;;;4.05;1.55;;;;;;;26.54;35.76;102673.53;6245991;23;20038;-43
2022/07/09 02:09:03;;;;;;;4.00;1.40;;;;;;;26.45;35.72;102657.44;6245518;23;20004;-49
2022/07/09 02:11:32;;;;;;;3.60;1.70;;;;;;;26.58;35.75;102679.78;6245967;23;20098;-46
2022/07/09 02:14:00;;;;;;;2.88;1.45;;;;;;;26.53;35.64;102672.63;6245795;23;20079;-44
2022/07/09 02:16:29;;;;;;;2.88;1.30;;;;;;;26.48;35.92;102670.72;6245017;23;20011;-46
2022/07/09 02:18:57;;;;;;;4.70;1.50;;;;;;;26.48;36.15;102674.22;6245318;23;20355;-45
2022/07/09 02:21:26;;;;;;;5.75;1.20;;;;;;;26.46;35.88;102668.03;6245910;23;20010;-46
2022/07/09 02:23:58;;;;;;;3.65;1.55;;;;;;;26.48;36.15;102676.84;6245686;23;20000;-45
2022/07/09 02:26:27;;;;;;;4.22;1.80;;;;;;;26.42;36.17;102671.44;6245837;23;20020;-47
2022/07/09 02:28:56;;;;;;;2.65;1.63;;;;;;;26.42;36.05;102675.78;6245585;23;20062;-49
2022/07/09 02:31:25;;;;;;;1.60;1.20;;;;;;;26.45;35.85;102678.50;6245653;23;20424;-48
2022/07/09 02:33:54;;;;;;;3.28;1.42;;;;;;;26.48;35.99;102678.59;6245282;23;20388;-44
2022/07/09 02:36:22;;;;;;;4.20;1.70;;;;;;;26.43;36.03;102673.22;6245218;23;20031;-52
2022/07/09 02:38:51;;;;;;;3.17;1.30;;;;;;;26.16;36.18;102646.97;6245207;23;20339;-52
2022/07/09 02:41:19;;;;;;;2.53;1.55;;;;;;;26.35;36.33;102682.59;6244127;23;20012;-46
2022/07/09 02:43:48;;;;;;;2.15;1.42;;;;;;;26.21;36.68;102680.44;6245761;23;20004;-45
2022/07/09 02:46:16;;;;;;;5.43;1.50;;;;;;;26.31;36.18;102675.50;6245821;23;19996;-44
2022/07/09 02:48:46;;;;;;;3.63;2.10;;;;;;;26.29;36.39;102679.81;6245346;23;20004;-46
2022/07/09 02:51:14;;;;;;;3.00;1.60;;;;;;;26.25;36.64;102670.91;6244932;23;20004;-43
2022/07/09 02:53:43;;;;;;;1.77;1.48;;;;;;;26.32;36.51;102675.53;6245343;23;20043;-46
2022/07/09 02:56:11;;;;;;;2.55;1.20;;;;;;;26.33;36.39;102665.88;6245256;23;20016;-45
2022/07/09 02:58:40;;;;;;;2.05;1.33;;;;;;;26.31;36.47;102671.09;6245177;23;20091;-46
2022/07/09 03:01:08;;;;;;;3.25;1.33;;;;;;;26.20;36.33;102655.00;6244975;23;20004;-51
2022/07/09 03:03:37;;;;;;;3.38;1.40;;;;;;;26.23;36.65;102665.59;6245267;23;20378;-44
2022/07/09 03:06:08;;;;;;;4.85;1.52;;;;;;;26.17;36.60;102665.41;6245759;23;20431;-45
2022/07/09 03:08:36;;;;;;;2.40;1.30;;;;;;;26.15;36.70;102661.84;6246752;23;19996;-52
2022/07/09 03:11:06;;;;;;;1.92;1.50;;;;;;;26.11;36.94;102672.19;6247255;23;20028;-45
2022/07/09 03:13:35;;;;;;;4.22;1.55;;;;;;;25.94;37.01;102643.63;6247286;23;20011;-44
2022/07/09 03:16:04;;;;;;;3.78;1.98;;;;;;;26.21;36.99;102666.41;6247183;23;20004;-46
2022/07/09 03:18:33;;;;;;;4.32;1.65;;;;;;;26.03;36.96;102656.16;6247579;23;20000;-47
2022/07/09 03:21:02;;;;;;;3.10;1.60;;;;;;;26.13;36.99;102657.38;6247432;23;20027;-48
2022/07/09 03:23:30;;;;;;;2.40;1.45;;;;;;;26.06;37.26;102664.16;6246855;23;20011;-49
2022/07/09 03:25:59;;;;;;;3.97;1.25;;;;;;;26.16;36.75;102663.63;6247196;23;20004;-45
2022/07/09 03:28:27;;;;;;;1.88;1.30;;;;;;;26.17;36.95;102661.91;6247285;23;20004;-44
2022/07/09 03:30:56;;;;;;;2.80;1.45;;;;;;;26.04;36.65;102643.09;6247399;23;20305;-45
2022/07/09 03:33:24;;;;;;;2.17;1.30;;;;;;;26.27;36.88;102660.44;6246443;23;20004;-56
2022/07/09 03:35:55;;;;;;;3.70;1.30;;;;;;;26.06;37.08;102666.78;6246762;23;20427;-48
2022/07/09 03:38:24;;;;;;;3.65;1.75;;;;;;;26.16;36.97;102657.50;6246989;23;19996;-52
2022/07/09 03:40:52;;;;;;;4.22;1.63;;;;;;;26.09;36.89;102666.91;6246706;23;20023;-44
2022/07/09 03:43:21;;;;;;;2.50;1.63;;;;;;;26.15;37.06;102663.59;6246947;23;20000;-48
2022/07/09 03:45:49;;;;;;;2.97;1.33;;;;;;;26.09;36.94;102664.25;6246232;23;20004;-45
2022/07/09 03:48:18;;;;;;;3.13;1.48;;;;;;;25.98;37.28;102656.03;6246626;23;20012;-44
2022/07/09 03:50:47;;;;;;;3.78;1.67;;;;;;;25.93;37.71;102653.28;6246471;23;20016;-44
2022/07/09 03:53:15;;;;;;;6.20;2.00;;;;;;;26.05;37.32;102662.38;6247023;23;20011;-50
2022/07/09 03:55:44;;;;;;;3.80;1.73;;;;;;;26.04;37.36;102661.50;6245271;23;20008;-44
2022/07/09 03:58:13;;;;;;;3.40;1.63;;;;;;;26.03;37.24;102656.16;6246859;23;20071;-45
2022/07/09 04:00:41;;;;;;;1.90;1.52;;;;;;;26.11;37.06;102651.16;6246651;23;20000;-43
2022/07/09 04:03:10;;;;;;;4.82;1.77;;;;;;;26.07;37.22;102644.91;6246702;23;20104;-44
2022/07/09 04:05:38;;;;;;;2.95;1.52;;;;;;;26.01;37.43;102653.50;6246881;23;20000;-44
2022/07/09 04:08:06;;;;;;;1.63;1.30;;;;;;;26.05;37.43;102650.13;6219822;23;20011;-44
2022/07/09 04:10:35;;;;;;;3.88;1.98;;;;;;;26.02;37.44;102642.16;6245954;23;20027;-45
2022/07/09 04:13:03;;;;;;;3.22;1.92;;;;;;;26.03;37.37;102646.56;6246054;23;20096;-45
2022/07/09 04:15:32;;;;;;;2.85;1.73;;;;;;;26.03;37.65;102649.19;6246624;23;20007;-49
2022/07/09 04:18:01;;;;;;;2.53;1.58;;;;;;;25.98;37.64;102642.88;6246493;23;20110;-47
2022/07/09 04:20:29;;;;;;;2.88;1.50;;;;;;;26.05;37.67;102643.97;6244501;23;20503;-44
2022/07/09 04:22:58;;;;;;;3.97;1.70;;;;;;;26.03;37.74;102637.75;6246882;23;20004;-44
2022/07/09 04:25:26;;;;;;;3.00;1.67;;;;;;;26.06;37.36;102637.88;6246432;23;20032;-44
2022/07/09 04:27:55;;;;;;;2.55;1.35;;;;;;;26.02;37.69;102638.59;6246370;23;20453;-44
2022/07/09 04:30:24;;;;;;;4.50;1.73;;;;;;;26.02;37.75;102635.97;6246864;23;20079;-46
2022/07/09 04:32:52;;;;;;;5.30;2.05;;;;;;;25.90;38.21;102641.75;6246397;23;20039;-44
2022/07/09 04:35:21;;;;;;;5.30;1.83;;;;;;;25.79;38.40;102644.06;6246107;23;20008;-44
2022/07/09 04:37:49;;;;;;;2.55;1.70;;;;;;;25.82;37.93;102633.63;6246061;23;20007;-48
2022/07/09 04:40:18;;;;;;;2.92;1.63;;;;;;;25.68;38.69;102640.16;6246267;23;20012;-43
2022/07/09 04:42:47;;;;;;;2.20;1.50;;;;;;;25.66;38.43;102624.38;6246522;23;20011;-51
2022/07/09 04:45:15;;;;;;;3.47;1.80;;;;;;;25.77;38.24;102627.34;6246310;23;20066;-44
2022/07/09 04:47:44;;;;;;;3.13;1.80;;;;;;;25.67;37.87;102605.13;6246271;23;20032;-45
2022/07/09 04:50:12;;;;;;;4.25;1.48;;;;;;;25.95;38.15;102640.16;6246492;23;20007;-47
2022/07/09 04:52:41;;;;;;;2.38;1.58;;;;;;;25.78;38.41;102630.00;6246430;23;20066;-49
2022/07/09 04:55:10;;;;;;;3.17;1.92;;;;;;;25.85;38.49;102638.97;6219389;23;20019;-45
2022/07/09 04:57:38;;;;;;;3.42;2.20;;;;;;;25.72;38.93;102640.34;6246179;23;20004;-44
2022/07/09 05:00:07;;;;;;;3.00;1.88;;;;;;;25.82;38.38;102638.88;6246392;23;20510;-52
2022/07/09 05:02:35;;;;;;;3.25;1.60;;;;;;;25.89;38.63;102642.63;6246174;23;20008;-44
2022/07/09 05:05:03;;;;;;;4.85;1.92;;;;;;;25.83;38.71;102642.41;6246439;23;20004;-54
2022/07/09 05:07:32;;;;;;;3.20;1.40;;;;;;;25.87;38.36;102639.91;6245926;23;20004;-44
2022/07/09 05:10:01;;;;;;;3.45;1.85;;;;;;;25.88;38.68;102632.94;6246040;23;20004;-44
2022/07/09 05:12:30;;;;;;;3.08;1.80;;;;;;;25.88;38.69;102640.81;6246220;23;20039;-57
2022/07/09 05:14:59;;;;;;;5.53;1.85;;;;;;;25.82;38.85;102628.34;6246275;23;20008;-46
2022/07/09 05:17:27;;;;;;;5.70;2.25;;;;;;;25.71;39.20;102632.38;6219201;23;20485;-48
2022/07/09 05:19:56;;;;;;;3.95;1.80;;;;;;;25.78;38.67;102634.38;6246462;23;20000;-47
2022/07/09 05:22:24;;;;;;;4.22;2.17;;;;;;;25.73;38.94;102630.72;6246325;23;20022;-56
2022/07/09 05:24:53;;;;;;;4.28;1.23;;;;;;;25.91;38.64;102635.63;6245784;23;20009;-44
2022/07/09 05:27:21;;;;;;;3.80;1.95;;;;;;;25.92;38.76;102634.78;6245818;23;20327;-44
2022/07/09 05:29:50;;;;;;;2.88;2.00;;;;;;;25.93;38.76;102633.94;6246186;23;20024;-44
2022/07/09 05:32:19;;;;;;;3.53;1.73;;;;;;;25.92;38.79;102632.16;6245935;23;20010;-52
2022/07/09 05:34:47;;;;;;;3.50;1.88;;;;;;;25.93;39.02;102628.69;6246162;23;20327;-44
2022/07/09 05:37:16;;;;;;;4.53;2.20;;;;;;;25.88;39.12;102627.69;6245586;23;20000;-43
2022/07/09 05:39:44;;;;;;;3.63;1.60;;;;;;;26.05;38.77;102641.34;6246835;23;20008;-52
2022/07/09 05:42:13;;;;;;;4.32;1.80;;;;;;;26.06;39.00;102632.59;6245671;23;20438;-49
2022/07/09 05:44:41;;;;;;;3.53;1.40;;;;;;;26.01;39.26;102636.81;6245721;23;20425;-44
2022/07/09 05:47:10;;;;;;;5.22;2.13;;;;;;;26.10;39.03;102639.75;6219226;23;20004;-50
2022/07/09 05:49:39;;;;;;;4.75;2.00;;;;;;;26.09;39.64;102636.22;6245574;23;20389;-56
2022/07/09 05:52:07;;;;;;;3.00;1.70;;;;;;;26.12;39.26;102643.34;6245527;23;20015;-48
2022/07/09 05:54:36;;;;;;;3.55;1.58;;;;;;;26.17;39.41;102635.59;6245707;23;20339;-46
2022/07/09 05:57:05;;;;;;;4.88;1.70;;;;;;;26.21;39.28;102632.22;6245871;23;20088;-47
2022/07/09 05:59:33;;;;;;;3.80;1.70;;;;;;;26.25;39.32;102641.97;6245882;23;20004;-47
2022/07/09 06:02:02;;;;;;;4.75;1.67;;;;;;;26.29;39.61;102640.34;6246980;23;20297;-45
2022/07/09 06:04:31;;;;;;;2.95;1.48;;;;;;;26.44;39.09;102643.41;6246132;23;20004;-47
2022/07/09 06:06:59;;;;;;;3.58;1.73;;;;;;;26.46;39.55;102651.34;6245673;23;20009;-46
2022/07/09 06:09:28;;;;;;;3.95;1.40;;;;;;;26.35;39.12;102646.69;6245712;23;20000;-57
2022/07/09 06:11:56;;;;;;;5.45;1.60;;;;;;;26.45;39.17;102645.22;6245456;23;20007;-54
2022/07/09 06:14:25;;;;;;;4.13;1.38;;;;;;;26.53;39.49;102648.94;6245495;23;20032;-44
2022/07/09 06:16:55;;;;;;;4.35;1.70;;;;;;;26.47;40.14;102648.78;6245542;23;20083;-54
2022/07/09 06:19:24;;;;;;;3.10;1.63;;;;;;;26.62;39.44;102652.69;6245318;23;20339;-45
2022/07/09 06:21:53;;;;;;;4.63;1.70;;;;;;;26.71;39.42;102658.19;6245606;23;20024;-45
2022/07/09 06:24:23;;;;;;;3.80;1.20;;;;;;;26.83;39.25;102660.31;6245821;23;20436;-45
2022/07/09 06:26:52;;;;;;;5.97;1.70;;;;;;;26.80;38.96;102652.34;6245683;23;20008;-44
2022/07/09 06:29:21;;;;;;;2.85;1.60;;;;;;;26.88;39.08;102660.44;6245825;23;20000;-44
2022/07/09 06:31:50;;;;;;;3.05;1.58;;;;;;;27.01;39.20;102657.28;6244610;23;20014;-49
2022/07/09 06:34:19;;;;;;;1.70;1.30;;;;;;;27.04;39.11;102656.50;6245187;23;20122;-48
2022/07/09 06:36:48;;;;;;;2.00;1.13;;;;;;;27.23;38.78;102666.66;6245314;23;20000;-44
2022/07/09 06:39:57;;;;;;;5.18;1.33;;;;;;;27.28;38.66;102658.88;6245421;23;20005;-45
2022/07/09 06:42:05;;;;;;;4.85;1.15;;;;;;;27.15;38.68;102640.09;6232441;23;20016;-45
2022/07/09 06:44:35;;;;;;;4.25;1.98;;;;;;;27.23;39.01;102661.38;6247281;23;20084;-51
2022/07/09 06:47:03;;;;;;;3.63;1.23;;;;;;;27.42;38.32;102665.41;6247341;23;20007;-57
2022/07/09 06:49:32;;;;;;;2.60;1.33;;;;;;;27.49;38.46;102657.66;6247215;23;20328;-49
2022/07/09 06:52:01;;;;;;;6.15;1.33;;;;;;;27.50;38.48;102662.06;6247370;23;20004;-45
2022/07/09 06:54:30;;;;;;;4.18;1.83;;;;;;;27.44;38.99;102663.69;6247706;23;20125;-44
2022/07/09 06:56:58;;;;;;;4.72;1.33;;;;;;;27.50;38.47;102670.88;6247208;23;20335;-45
2022/07/09 06:59:27;;;;;;;2.75;1.20;;;;;;;27.59;38.39;102670.22;6220518;23;20008;-44
2022/07/09 07:01:56;;;;;;;1.67;1.00;;;;;;;27.67;38.26;102665.13;6247794;23;20062;-43
2022/07/09 07:04:25;;;;;;;2.70;1.40;;;;;;;27.68;38.26;102664.28;6247536;23;20054;-51
2022/07/09 07:06:53;;;;;;;3.92;1.23;;;;;;;27.70;38.30;102665.22;6247710;23;20430;-52
2022/07/09 07:09:22;;;;;;;3.28;1.20;;;;;;;27.73;38.13;102671.44;6220281;23;20004;-51
2022/07/09 07:11:51;;;;;;;2.78;1.30;;;;;;;27.83;38.19;102671.66;6246951;23;20034;-44
2022/07/09 07:14:20;;;;;;;2.30;1.15;;;;;;;27.86;38.17;102671.72;6247490;23;20187;-44
2022/07/09 07:16:48;;;;;;;3.92;1.50;;;;;;;27.93;37.95;102664.84;6221041;23;20004;-43
2022/07/09 07:19:17;;;;;;;2.20;1.10;;;;;;;27.89;38.21;102669.19;6220865;23;20006;-43
2022/07/09 07:21:46;;;;;;;2.38;1.08;;;;;;;27.99;38.07;102676.44;6247545;23;20000;-43
2022/07/09 07:24:14;;;;;;;0.85;0.70;;;;;;;28.12;37.77;102677.66;6247039;23;20008;-44
2022/07/09 07:26:43;;;;;;;2.20;1.10;;;;;;;28.14;37.94;102662.75;6247147;23;20008;-48
2022/07/09 07:29:11;;;;;;;4.30;1.67;;;;;;;28.07;37.98;102663.41;6247069;23;20039;-47
2022/07/09 07:31:40;;;;;;;3.55;1.00;;;;;;;28.08;38.11;102672.25;6247273;23;20015;-43
2022/07/09 07:34:09;;;;;;;2.75;1.33;;;;;;;28.22;37.60;102670.81;6246992;23;20008;-51
2022/07/09 07:36:36;;;;;;;2.25;1.05;;;;;;;28.31;37.71;102670.13;6247347;23;20000;-47
2022/07/09 07:39:05;;;;;;;1.92;1.20;;;;;;;28.45;37.43;102673.06;6247100;23;20000;-44
2022/07/09 07:41:34;;;;;;;2.60;1.40;;;;;;;28.50;37.78;102681.97;6245489;23;20079;-44
2022/07/09 07:44:02;;;;;;;2.67;1.20;;;;;;;28.59;37.31;102678.63;6247407;23;20087;-43
2022/07/09 07:46:31;;;;;;;2.88;1.20;;;;;;;28.55;37.33;102669.75;6247274;23;20000;-44
2022/07/09 07:49:00;;;;;;;2.95;1.10;;;;;;;28.59;37.32;102665.41;6247181;23;20000;-43
2022/07/09 07:51:29;;;;;;;3.80;1.02;;;;;;;28.66;37.23;102684.06;6247368;23;20084;-44
2022/07/09 07:53:57;;;;;;;4.43;1.00;;;;;;;28.71;37.40;102680.63;6247701;23;20008;-44
2022/07/09 07:56:26;;;;;;;3.78;1.10;;;;;;;28.72;37.41;102675.34;6246969;23;20427;-44
2022/07/09 07:58:54;;;;;;;5.25;1.02;;;;;;;28.70;37.09;102663.00;6247233;23;20054;-43
2022/07/09 08:01:23;;;;;;;4.32;1.15;;;;;;;28.75;37.48;102666.66;6247037;23;20411;-48
2022/07/09 08:03:52;;;;;;;2.88;0.77;;;;;;;28.67;37.34;102642.72;6247063;23;20031;-49
2022/07/09 08:06:22;;;;;;;1.52;0.82;;;;;;;28.99;37.16;102673.25;6220321;23;20019;-44
2022/07/09 08:08:51;;;;;;;1.45;1.00;;;;;;;29.01;36.93;102679.47;6245572;23;20058;-44
2022/07/09 08:11:19;;;;;;;4.25;1.73;;;;;;;28.89;37.37;102662.53;6246714;23;20009;-43
2022/07/09 08:13:48;;;;;;;3.22;1.00;;;;;;;29.04;37.04;102672.47;6246759;23;20008;-43
2022/07/09 08:16:16;;;;;;;2.47;1.27;;;;;;;28.91;37.03;102659.91;6246633;23;20004;-45
2022/07/09 08:18:45;;;;;;;3.47;1.52;;;;;;;29.09;36.95;102667.28;6220000;23;20011;-53
2022/07/09 08:21:13;;;;;;;1.65;0.80;;;;;;;29.15;36.65;102662.09;6247075;23;20000;-44
2022/07/09 08:23:51;;;;;;;2.53;1.33;;;;;;;29.14;36.50;102665.59;6246931;23;20477;-57
2022/07/09 08:26:19;;;;;;;4.10;0.90;;;;;;;29.11;36.73;102660.28;6246559;23;19996;-54
2022/07/09 08:28:46;;;;;;;1.83;0.80;;;;;;;29.15;36.46;102656.81;6246541;23;20058;-44
2022/07/09 08:31:15;;;;;;;2.28;0.90;;;;;;;29.26;36.39;102680.78;6246950;23;20083;-44
2022/07/09 08:33:44;;;;;;;2.35;0.80;;;;;;;29.26;36.70;102672.88;6220177;23;20431;-54
2022/07/09 08:36:12;;;;;;;1.73;0.95;;;;;;;29.33;36.56;102676.50;6219972;23;20313;-53
2022/07/09 08:38:39;;;;;;;2.38;0.90;;;;;;;29.35;36.46;102666.88;6246283;23;20075;-52
2022/07/09 08:41:07;;;;;;;12.40;1.13;;;;;;;29.37;36.58;102670.44;6219650;23;20040;-44
2022/07/09 08:43:37;;;;;;;3.50;1.13;;;;;;;29.41;36.38;102661.72;6246927;23;20001;-50
2022/07/09 08:46:06;;;;;;;1.58;0.80;;;;;;;29.51;36.15;102663.63;6246953;23;20000;-48
2022/07/09 08:48:36;;;;;;;8.18;1.00;;;;;;;29.55;36.42;102657.53;6246211;23;20008;-47
2022/07/09 08:51:05;;;;;;;2.22;0.90;;;;;;;29.47;36.33;102659.16;6220125;23;20014;-52
2022/07/09 08:53:34;;;;;;;1.88;1.05;;;;;;;29.49;36.59;102659.19;6246726;23;20015;-43
2022/07/09 08:56:02;;;;;;;3.47;1.42;;;;;;;29.61;36.21;102669.94;6219782;23;20514;-44
2022/07/09 08:58:33;;;;;;;2.03;1.00;;;;;;;29.60;36.20;102654.94;6219173;23;20058;-49
2022/07/09 09:01:04;;;;;;;2.08;0.90;;;;;;;29.63;36.01;102659.38;6245029;23;20007;-45
2022/07/09 09:03:31;;;;;;;1.73;0.80;;;;;;;29.67;35.77;102663.88;6219707;23;20083;-45
2022/07/09 09:06:06;;;;;;;1.95;0.90;;;;;;;29.63;36.24;102644.44;6218841;23;20004;-44
2022/07/09 09:08:38;;;;;;;2.00;1.10;;;;;;;29.73;35.48;102655.13;6246745;23;20011;-44
2022/07/09 09:11:08;;;;;;;1.05;0.60;;;;;;;29.86;35.45;102654.47;6220601;23;20000;-51
2022/07/09 09:13:46;;;;;;;2.70;1.15;;;;;;;29.89;35.13;102650.97;6246638;23;20004;-44
2022/07/09 09:16:16;;;;;;;7.18;1.05;;;;;;;29.85;35.39;102647.41;6246258;23;20007;-45
2022/07/09 09:18:47;;;;;;;4.15;1.27;;;;;;;29.96;35.43;102655.50;6246135;23;19996;-45
2022/07/09 09:21:17;;;;;;;0.93;0.50;;;;;;;30.06;35.05;102654.78;6194806;23;20008;-44
2022/07/09 09:23:50;;;;;;;1.38;0.90;;;;;;;30.04;35.38;102652.97;6246103;23;20000;-44
2022/07/09 09:26:21;;;;;;;1.13;0.75;;;;;;;30.17;34.99;102655.81;6246828;23;20011;-46
2022/07/09 09:28:59;;;;;;;1.00;0.60;;;;;;;30.14;34.93;102657.53;6246327;23;20419;-44
2022/07/09 09:31:29;;;;;;;2.10;0.93;;;;;;;30.07;34.97;102640.69;6219622;23;20000;-46
2022/07/09 09:33:59;;;;;;;3.08;0.77;;;;;;;30.06;34.85;102646.84;6194626;23;20336;-44
2022/07/09 09:36:48;;;;;;;3.17;0.85;;;;;;;30.10;34.62;102648.66;6244618;23;20008;-44
2022/07/09 09:39:22;;;;;;;2.22;1.33;;;;;;;30.17;34.87;102649.63;6244674;23;20004;-45
2022/07/09 09:41:51;;;;;;;;;;;;;;;30.16;35.09;102655.78;6246158;23;20016;-44
2022/07/09 09:44:21;;;;;;;1.58;0.75;;;;;;;30.22;34.93;102647.91;6219284;23;19907;-46
2022/07/09 09:46:50;;;;;;;1.15;0.63;;;;;;;30.27;34.67;102655.94;6246064;23;20335;-44
2022/07/09 09:49:18;;;;;;;1.67;0.70;;;;;;;30.22;34.90;102645.25;6245887;23;20004;-44
2022/07/09 09:52:07;;;;;;;3.90;0.80;;;;;;;30.23;34.48;102643.53;6246149;23;20050;-48
2022/07/09 09:54:37;;;;;;;3.65;0.80;;;;;;;30.22;34.33;102628.50;6246261;23;20084;-44
2022/07/09 09:57:09;;;;;;;1.17;0.70;;;;;;;30.29;34.26;102631.25;6246020;23;20420;-44
2022/07/09 09:59:39;;;;;;;1.30;1.00;;;;;;;30.38;33.93;102654.31;6244313;23;20452;-44
2022/07/09 10:02:09;;;;;;;1.48;0.85;;;;;;;30.40;33.98;102641.97;6246188;23;20007;-45
2022/07/09 10:04:40;;;;;;;2.05;0.98;;;;;;;30.47;34.01;102651.75;6245158;23;20000;-44
2022/07/09 10:07:09;;;;;;;0.85;0.60;;;;;;;30.45;33.87;102645.53;6246212;23;20000;-45
2022/07/09 10:09:37;;;;;;;2.05;0.77;;;;;;;30.46;33.97;102647.31;6245791;23;20000;-45
2022/07/09 10:12:06;;;;;;;1.58;0.80;;;;;;;30.48;33.77;102634.13;6246275;23;20035;-44
2022/07/09 10:14:35;;;;;;;3.25;0.93;;;;;;;30.50;33.37;102627.09;6219054;23;20004;-44
2022/07/09 10:17:24;;;;;;;1.38;0.80;;;;;;;30.56;33.67;102644.84;6246653;23;20011;-47
2022/07/09 10:19:54;;;;;;;0.85;0.65;;;;;;;30.59;33.49;102645.75;6246391;23;20023;-46
2022/07/09 10:22:24;;;;;;;2.85;1.00;;;;;;;30.61;33.48;102636.06;6246596;23;20008;-45
2022/07/09 10:24:52;;;;;;;1.02;0.60;;;;;;;30.59;33.88;102626.34;6248221;23;20328;-44
2022/07/09 10:27:21;;;;;;;1.45;0.73;;;;;;;30.56;33.79;102619.22;6248706;23;20000;-48
2022/07/09 10:30:00;;;;;;;1.35;1.05;;;;;;;30.69;33.85;102630.84;6248079;23;20008;-46
2022/07/09 10:32:29;;;;;;;2.08;0.80;;;;;;;30.69;33.55;102609.66;6221709;23;20004;-47
2022/07/09 10:35:03;;;;;;;2.10;0.90;;;;;;;30.74;33.72;102615.91;6249220;23;20000;-52
2022/07/09 10:37:44;;;;;;;5.05;0.90;;;;;;;30.75;33.57;102622.06;6246325;23;20070;-44
2022/07/09 10:40:13;;;;;;;1.08;0.75;;;;;;;30.82;33.21;102625.66;6247837;23;20395;-44
2022/07/09 10:42:43;;;;;;;3.10;0.93;;;;;;;30.73;33.16;102610.56;6221652;23;20371;-56
2022/07/09 10:45:37;;;;;;;2.33;0.65;;;;;;;30.70;33.27;102607.88;6196243;23;20023;-44
2022/07/09 10:48:06;;;;;;;1.33;0.77;;;;;;;30.85;33.07;102620.41;6246399;23;20076;-44
2022/07/09 10:50:38;;;;;;;4.60;0.88;;;;;;;30.83;32.68;102611.53;6247055;23;20071;-44
2022/07/09 10:53:07;;;;;;;1.75;0.85;;;;;;;30.64;32.91;102587.53;6247502;23;20122;-44
2022/07/09 10:55:35;;;;;;;1.48;0.82;;;;;;;30.72;32.98;102601.75;6196061;23;20004;-44
2022/07/09 10:58:07;;;;;;;1.30;0.70;;;;;;;30.80;32.73;102604.47;6247643;23;20006;-44
2022/07/09 11:00:35;;;;;;;1.38;0.80;;;;;;;30.86;32.63;102607.16;6220883;23;20004;-44
2022/07/09 11:03:06;;;;;;;3.13;0.90;;;;;;;30.88;33.07;102607.19;6221260;23;20062;-43
2022/07/09 11:05:35;;;;;;;1.25;0.70;;;;;;;30.96;32.99;102607.25;6247625;23;20062;-54
2022/07/09 11:08:09;;;;;;;3.83;0.70;;;;;;;30.94;33.14;102601.97;6247334;23;20000;-44
2022/07/09 11:10:39;;;;;;;1.33;0.75;;;;;;;30.91;33.25;102581.59;6248200;23;20004;-43
2022/07/09 11:13:09;;;;;;;0.70;0.60;;;;;;;31.01;32.87;102603.78;6246379;23;20434;-43
2022/07/09 11:15:38;;;;;;;2.15;0.90;;;;;;;30.93;32.89;102586.94;6247896;23;20370;-43
2022/07/09 11:18:08;;;;;;;1.58;0.75;;;;;;;31.09;32.83;102598.53;6220979;23;20309;-45
2022/07/09 11:20:43;;;;;;;3.22;0.75;;;;;;;30.99;32.66;102584.31;6246947;23;20022;-45
2022/07/09 11:23:12;;;;;;;2.28;0.82;;;;;;;31.15;32.97;102600.38;6247271;23;20004;-42
2022/07/09 11:25:41;;;;;;;1.65;0.68;;;;;;;31.13;32.70;102580.88;6245463;23;20030;-43
2022/07/09 11:28:09;;;;;;;1.55;0.68;;;;;;;31.23;32.61;102601.34;6246989;23;20340;-44
2022/07/09 11:30:38;;;;;;;5.45;1.00;;;;;;;31.16;32.19;102575.66;6245664;23;20391;-43
2022/07/09 11:33:06;;;;;;;2.42;0.73;;;;;;;31.10;32.04;102567.63;6246937;23;20321;-43